sensor_id;sensor_type;location;lat;lon;timestamp;temperature;humidity
5494;DHT22;2769;49.864;8.656;2022-08-25T00:02:13;26.80;59.50
5494;DHT22;2769;49.864;8.656;2022-08-25T00:05:03;26.90;59.70
5494;DHT22;2769;49.864;8.656;2022-08-25T00:07:52;27.00;59.90
5494;DHT22;2769;49.864;8.656;2022-08-25T00:10:39;27.00;60.50
5494;DHT22;2769;49.864;8.656;2022-08-25T00:13:28;26.90;61.00
5494;DHT22;2769;49.864;8.656;2022-08-25T00:16:16;26.90;61.20
5494;DHT22;2769;49.864;8.656;2022-08-25T00:19:07;26.90;62.20
5494;DHT22;2769;49.864;8.656;2022-08-25T00:21:54;26.80;62.80
5494;DHT22;2769;49.864;8.656;2022-08-25T00:24:41;26.90;63.20
5494;DHT22;2769;49.864;8.656;2022-08-25T00:27:28;26.90;63.20
5494;DHT22;2769;49.864;8.656;2022-08-25T00:30:16;26.90;63.90
5494;DHT22;2769;49.864;8.656;2022-08-25T00:33:03;26.90;64.50
5494;DHT22;2769;49.864;8.656;2022-08-25T00:35:50;27.00;64.30
5494;DHT22;2769;49.864;8.656;2022-08-25T00:38:37;27.00;64.50
5494;DHT22;2769;49.864;8.656;2022-08-25T00:41:25;26.90;65.50
5494;DHT22;2769;49.864;8.656;2022-08-25T00:44:14;26.80;65.80
5494;DHT22;2769;49.864;8.656;2022-08-25T00:47:04;26.80;66.40
5494;DHT22;2769;49.864;8.656;2022-08-25T00:49:54;26.80;66.70
5494;DHT22;2769;49.864;8.656;2022-08-25T00:52:44;26.70;67.00
5494;DHT22;2769;49.864;8.656;2022-08-25T00:55:35;26.80;67.20
5494;DHT22;2769;49.864;8.656;2022-08-25T00:58:25;26.70;67.80
5494;DHT22;2769;49.864;8.656;2022-08-25T01:01:12;26.70;68.30
5494;DHT22;2769;49.864;8.656;2022-08-25T01:04:02;26.70;68.20
5494;DHT22;2769;49.864;8.656;2022-08-25T01:06:49;26.70;68.60
5494;DHT22;2769;49.864;8.656;2022-08-25T01:09:41;26.60;68.80
5494;DHT22;2769;49.864;8.656;2022-08-25T01:12:29;26.80;69.20
5494;DHT22;2769;49.864;8.656;2022-08-25T01:15:16;26.80;69.30
5494;DHT22;2769;49.864;8.656;2022-08-25T01:18:03;26.70;69.80
5494;DHT22;2769;49.864;8.656;2022-08-25T01:20:52;26.60;69.90
5494;DHT22;2769;49.864;8.656;2022-08-25T01:23:39;26.50;70.20
5494;DHT22;2769;49.864;8.656;2022-08-25T01:26:28;26.50;70.60
5494;DHT22;2769;49.864;8.656;2022-08-25T01:29:15;26.60;70.80
5494;DHT22;2769;49.864;8.656;2022-08-25T01:32:11;26.50;72.30
5494;DHT22;2769;49.864;8.656;2022-08-25T01:34:59;26.50;72.00
5494;DHT22;2769;49.864;8.656;2022-08-25T01:37:47;26.50;72.10
5494;DHT22;2769;49.864;8.656;2022-08-25T01:40:34;26.50;72.10
5494;DHT22;2769;49.864;8.656;2022-08-25T01:43:30;26.50;73.20
5494;DHT22;2769;49.864;8.656;2022-08-25T01:46:21;26.40;73.50
5494;DHT22;2769;49.864;8.656;2022-08-25T01:49:08;26.50;73.40
5494;DHT22;2769;49.864;8.656;2022-08-25T01:51:59;26.40;73.60
5494;DHT22;2769;49.864;8.656;2022-08-25T01:54:47;26.50;74.50
5494;DHT22;2769;49.864;8.656;2022-08-25T01:57:34;26.50;74.30
5494;DHT22;2769;49.864;8.656;2022-08-25T02:00:22;26.30;75.10
5494;DHT22;2769;49.864;8.656;2022-08-25T02:03:09;26.30;75.40
5494;DHT22;2769;49.864;8.656;2022-08-25T02:06:04;26.20;76.10
5494;DHT22;2769;49.864;8.656;2022-08-25T02:08:52;26.20;76.90
5494;DHT22;2769;49.864;8.656;2022-08-25T02:11:43;25.90;78.10
5494;DHT22;2769;49.864;8.656;2022-08-25T02:14:30;25.80;79.30
5494;DHT22;2769;49.864;8.656;2022-08-25T02:17:16;25.70;79.90
5494;DHT22;2769;49.864;8.656;2022-08-25T02:20:04;25.80;79.80
5494;DHT22;2769;49.864;8.656;2022-08-25T02:22:52;25.80;80.50
5494;DHT22;2769;49.864;8.656;2022-08-25T02:25:42;25.70;81.80
5494;DHT22;2769;49.864;8.656;2022-08-25T02:28:29;25.70;82.00
5494;DHT22;2769;49.864;8.656;2022-08-25T02:31:18;25.60;83.10
5494;DHT22;2769;49.864;8.656;2022-08-25T02:34:07;25.50;83.30
5494;DHT22;2769;49.864;8.656;2022-08-25T02:36:54;25.60;83.50
5494;DHT22;2769;49.864;8.656;2022-08-25T02:39:40;25.60;83.20
5494;DHT22;2769;49.864;8.656;2022-08-25T02:42:27;25.60;83.10
5494;DHT22;2769;49.864;8.656;2022-08-25T02:45:16;25.60;83.30
5494;DHT22;2769;49.864;8.656;2022-08-25T02:48:03;25.60;83.30
5494;DHT22;2769;49.864;8.656;2022-08-25T02:50:51;25.60;83.90
5494;DHT22;2769;49.864;8.656;2022-08-25T02:53:39;25.80;83.50
5494;DHT22;2769;49.864;8.656;2022-08-25T02:56:27;25.80;83.90
5494;DHT22;2769;49.864;8.656;2022-08-25T02:59:14;25.70;83.80
5494;DHT22;2769;49.864;8.656;2022-08-25T03:02:04;25.60;84.00
5494;DHT22;2769;49.864;8.656;2022-08-25T03:04:51;25.80;84.10
5494;DHT22;2769;49.864;8.656;2022-08-25T03:07:39;25.60;84.70
5494;DHT22;2769;49.864;8.656;2022-08-25T03:10:26;25.50;85.10
5494;DHT22;2769;49.864;8.656;2022-08-25T03:13:13;25.40;85.50
5494;DHT22;2769;49.864;8.656;2022-08-25T03:16:01;25.40;86.10
5494;DHT22;2769;49.864;8.656;2022-08-25T03:18:58;25.30;86.60
5494;DHT22;2769;49.864;8.656;2022-08-25T03:21:45;25.40;87.00
5494;DHT22;2769;49.864;8.656;2022-08-25T03:24:31;25.40;87.00
5494;DHT22;2769;49.864;8.656;2022-08-25T03:27:17;25.40;87.30
5494;DHT22;2769;49.864;8.656;2022-08-25T03:30:04;25.40;87.30
5494;DHT22;2769;49.864;8.656;2022-08-25T03:32:52;25.40;87.60
5494;DHT22;2769;49.864;8.656;2022-08-25T03:35:40;25.20;88.10
5494;DHT22;2769;49.864;8.656;2022-08-25T03:38:27;25.20;88.10
5494;DHT22;2769;49.864;8.656;2022-08-25T03:41:16;25.20;88.00
5494;DHT22;2769;49.864;8.656;2022-08-25T03:44:04;25.10;88.90
5494;DHT22;2769;49.864;8.656;2022-08-25T03:46:51;25.00;89.30
5494;DHT22;2769;49.864;8.656;2022-08-25T03:49:38;24.90;89.60
5494;DHT22;2769;49.864;8.656;2022-08-25T03:52:26;25.00;90.00
5494;DHT22;2769;49.864;8.656;2022-08-25T03:55:13;24.90;90.00
5494;DHT22;2769;49.864;8.656;2022-08-25T03:58:00;24.90;90.30
5494;DHT22;2769;49.864;8.656;2022-08-25T04:00:47;25.00;90.20
5494;DHT22;2769;49.864;8.656;2022-08-25T04:03:34;25.00;90.30
5494;DHT22;2769;49.864;8.656;2022-08-25T04:06:22;24.90;90.40
5494;DHT22;2769;49.864;8.656;2022-08-25T04:09:10;24.80;90.70
5494;DHT22;2769;49.864;8.656;2022-08-25T04:11:58;24.80;91.00
5494;DHT22;2769;49.864;8.656;2022-08-25T04:14:44;24.60;91.10
5494;DHT22;2769;49.864;8.656;2022-08-25T04:17:31;24.60;91.40
5494;DHT22;2769;49.864;8.656;2022-08-25T04:20:17;24.60;91.60
5494;DHT22;2769;49.864;8.656;2022-08-25T04:23:04;24.60;91.70
5494;DHT22;2769;49.864;8.656;2022-08-25T04:25:52;24.60;91.90
5494;DHT22;2769;49.864;8.656;2022-08-25T04:28:39;24.60;92.00
5494;DHT22;2769;49.864;8.656;2022-08-25T04:31:27;24.50;92.20
5494;DHT22;2769;49.864;8.656;2022-08-25T04:34:14;24.50;92.50
5494;DHT22;2769;49.864;8.656;2022-08-25T04:37:15;24.40;92.70
5494;DHT22;2769;49.864;8.656;2022-08-25T04:40:03;24.40;92.90
5494;DHT22;2769;49.864;8.656;2022-08-25T04:42:51;24.40;93.10
5494;DHT22;2769;49.864;8.656;2022-08-25T04:45:38;24.50;93.30
5494;DHT22;2769;49.864;8.656;2022-08-25T04:48:25;24.60;93.30
5494;DHT22;2769;49.864;8.656;2022-08-25T04:51:15;24.60;93.50
5494;DHT22;2769;49.864;8.656;2022-08-25T04:54:04;24.50;93.60
5494;DHT22;2769;49.864;8.656;2022-08-25T04:56:51;24.60;93.70
5494;DHT22;2769;49.864;8.656;2022-08-25T04:59:44;24.60;93.60
5494;DHT22;2769;49.864;8.656;2022-08-25T05:02:30;24.70;93.90
5494;DHT22;2769;49.864;8.656;2022-08-25T05:05:17;24.60;94.10
5494;DHT22;2769;49.864;8.656;2022-08-25T05:08:04;24.50;94.40
5494;DHT22;2769;49.864;8.656;2022-08-25T05:10:52;24.50;94.30
5494;DHT22;2769;49.864;8.656;2022-08-25T05:13:41;24.60;94.40
5494;DHT22;2769;49.864;8.656;2022-08-25T05:16:37;24.60;94.50
5494;DHT22;2769;49.864;8.656;2022-08-25T05:19:25;24.50;94.60
5494;DHT22;2769;49.864;8.656;2022-08-25T05:22:12;24.50;94.90
5494;DHT22;2769;49.864;8.656;2022-08-25T05:24:58;24.60;95.00
5494;DHT22;2769;49.864;8.656;2022-08-25T05:27:44;24.60;95.20
5494;DHT22;2769;49.864;8.656;2022-08-25T05:30:31;24.40;95.90
5494;DHT22;2769;49.864;8.656;2022-08-25T05:33:19;24.60;95.90
5494;DHT22;2769;49.864;8.656;2022-08-25T05:36:07;24.50;96.30
5494;DHT22;2769;49.864;8.656;2022-08-25T05:38:55;24.50;96.50
5494;DHT22;2769;49.864;8.656;2022-08-25T05:41:41;24.40;96.80
5494;DHT22;2769;49.864;8.656;2022-08-25T05:44:28;24.40;96.80
5494;DHT22;2769;49.864;8.656;2022-08-25T05:47:15;24.50;97.00
5494;DHT22;2769;49.864;8.656;2022-08-25T05:50:04;24.60;97.20
5494;DHT22;2769;49.864;8.656;2022-08-25T05:52:51;24.60;97.10
5494;DHT22;2769;49.864;8.656;2022-08-25T05:55:37;24.60;97.40
5494;DHT22;2769;49.864;8.656;2022-08-25T05:58:25;24.70;97.40
5494;DHT22;2769;49.864;8.656;2022-08-25T06:01:24;24.70;97.50
5494;DHT22;2769;49.864;8.656;2022-08-25T06:04:30;24.70;97.80
5494;DHT22;2769;49.864;8.656;2022-08-25T06:07:17;24.80;97.90
5494;DHT22;2769;49.864;8.656;2022-08-25T06:10:06;24.90;98.00
5494;DHT22;2769;49.864;8.656;2022-08-25T06:12:55;24.90;98.00
5494;DHT22;2769;49.864;8.656;2022-08-25T06:15:42;25.10;98.30
5494;DHT22;2769;49.864;8.656;2022-08-25T06:18:30;25.10;98.10
5494;DHT22;2769;49.864;8.656;2022-08-25T06:21:16;25.20;98.50
5494;DHT22;2769;49.864;8.656;2022-08-25T06:24:05;25.20;98.30
5494;DHT22;2769;49.864;8.656;2022-08-25T06:26:57;25.30;98.30
5494;DHT22;2769;49.864;8.656;2022-08-25T06:29:44;25.70;98.60
5494;DHT22;2769;49.864;8.656;2022-08-25T06:32:32;25.50;98.60
5494;DHT22;2769;49.864;8.656;2022-08-25T06:35:20;25.50;98.70
5494;DHT22;2769;49.864;8.656;2022-08-25T06:38:07;25.60;99.20
5494;DHT22;2769;49.864;8.656;2022-08-25T06:40:55;25.50;99.30
5494;DHT22;2769;49.864;8.656;2022-08-25T06:43:43;25.60;99.10
5494;DHT22;2769;49.864;8.656;2022-08-25T06:46:35;25.60;99.60
5494;DHT22;2769;49.864;8.656;2022-08-25T06:49:22;25.60;99.70
5494;DHT22;2769;49.864;8.656;2022-08-25T06:52:12;25.70;99.90
5494;DHT22;2769;49.864;8.656;2022-08-25T06:55:00;25.80;99.90
5494;DHT22;2769;49.864;8.656;2022-08-25T06:57:50;25.80;99.90
5494;DHT22;2769;49.864;8.656;2022-08-25T07:00:39;26.00;99.90
5494;DHT22;2769;49.864;8.656;2022-08-25T07:03:26;26.00;99.90
5494;DHT22;2769;49.864;8.656;2022-08-25T07:06:13;26.00;99.90
5494;DHT22;2769;49.864;8.656;2022-08-25T07:09:04;26.00;99.90
5494;DHT22;2769;49.864;8.656;2022-08-25T07:11:52;26.00;99.90
5494;DHT22;2769;49.864;8.656;2022-08-25T07:14:40;26.10;99.90
5494;DHT22;2769;49.864;8.656;2022-08-25T07:17:48;26.20;99.90
5494;DHT22;2769;49.864;8.656;2022-08-25T07:20:35;26.20;99.90
5494;DHT22;2769;49.864;8.656;2022-08-25T07:23:22;26.30;99.90
5494;DHT22;2769;49.864;8.656;2022-08-25T07:26:10;26.50;99.90
5494;DHT22;2769;49.864;8.656;2022-08-25T07:29:41;26.60;99.90
5494;DHT22;2769;49.864;8.656;2022-08-25T07:32:27;26.80;99.70
5494;DHT22;2769;49.864;8.656;2022-08-25T07:35:14;26.90;99.00
5494;DHT22;2769;49.864;8.656;2022-08-25T07:38:05;27.00;99.10
5494;DHT22;2769;49.864;8.656;2022-08-25T07:41:00;27.00;98.90
5494;DHT22;2769;49.864;8.656;2022-08-25T07:43:47;26.90;99.90
5494;DHT22;2769;49.864;8.656;2022-08-25T07:46:35;26.90;99.50
5494;DHT22;2769;49.864;8.656;2022-08-25T07:49:25;27.00;99.50
5494;DHT22;2769;49.864;8.656;2022-08-25T07:52:24;27.00;99.80
5494;DHT22;2769;49.864;8.656;2022-08-25T07:55:11;27.20;99.60
5494;DHT22;2769;49.864;8.656;2022-08-25T07:58:03;27.50;98.70
5494;DHT22;2769;49.864;8.656;2022-08-25T08:00:51;27.80;98.00
5494;DHT22;2769;49.864;8.656;2022-08-25T08:03:39;28.00;97.60
5494;DHT22;2769;49.864;8.656;2022-08-25T08:06:35;28.40;97.10
5494;DHT22;2769;49.864;8.656;2022-08-25T08:09:22;28.90;96.00
5494;DHT22;2769;49.864;8.656;2022-08-25T08:12:09;29.30;95.30
5494;DHT22;2769;49.864;8.656;2022-08-25T08:14:57;29.70;94.40
5494;DHT22;2769;49.864;8.656;2022-08-25T08:17:45;29.90;93.50
5494;DHT22;2769;49.864;8.656;2022-08-25T08:20:34;30.30;92.90
5494;DHT22;2769;49.864;8.656;2022-08-25T08:23:28;30.60;92.30
5494;DHT22;2769;49.864;8.656;2022-08-25T08:26:15;31.10;91.10
5494;DHT22;2769;49.864;8.656;2022-08-25T08:29:02;31.30;90.40
5494;DHT22;2769;49.864;8.656;2022-08-25T08:31:49;31.80;89.40
5494;DHT22;2769;49.864;8.656;2022-08-25T08:34:35;32.40;87.50
5494;DHT22;2769;49.864;8.656;2022-08-25T08:37:24;32.70;85.00
5494;DHT22;2769;49.864;8.656;2022-08-25T08:40:14;32.70;83.40
5494;DHT22;2769;49.864;8.656;2022-08-25T08:43:05;32.90;82.80
5494;DHT22;2769;49.864;8.656;2022-08-25T08:46:02;33.00;82.00
5494;DHT22;2769;49.864;8.656;2022-08-25T08:48:57;33.20;80.30
5494;DHT22;2769;49.864;8.656;2022-08-25T08:51:52;33.10;80.00
5494;DHT22;2769;49.864;8.656;2022-08-25T08:54:45;33.70;78.90
5494;DHT22;2769;49.864;8.656;2022-08-25T08:57:41;33.60;77.40
5494;DHT22;2769;49.864;8.656;2022-08-25T09:00:31;34.10;76.00
5494;DHT22;2769;49.864;8.656;2022-08-25T09:03:28;34.60;74.70
5494;DHT22;2769;49.864;8.656;2022-08-25T09:06:23;34.90;72.10
5494;DHT22;2769;49.864;8.656;2022-08-25T09:09:13;35.00;70.50
5494;DHT22;2769;49.864;8.656;2022-08-25T09:12:10;35.20;69.70
5494;DHT22;2769;49.864;8.656;2022-08-25T09:15:12;34.90;68.90
5494;DHT22;2769;49.864;8.656;2022-08-25T09:18:06;35.30;68.40
5494;DHT22;2769;49.864;8.656;2022-08-25T09:21:02;35.60;67.50
5494;DHT22;2769;49.864;8.656;2022-08-25T09:24:06;35.70;66.60
5494;DHT22;2769;49.864;8.656;2022-08-25T09:27:04;35.50;66.10
5494;DHT22;2769;49.864;8.656;2022-08-25T09:30:00;35.70;65.50
5494;DHT22;2769;49.864;8.656;2022-08-25T09:32:52;36.20;64.60
5494;DHT22;2769;49.864;8.656;2022-08-25T09:35:46;36.00;64.00
5494;DHT22;2769;49.864;8.656;2022-08-25T09:38:37;35.90;63.80
5494;DHT22;2769;49.864;8.656;2022-08-25T09:41:40;36.30;63.50
5494;DHT22;2769;49.864;8.656;2022-08-25T09:44:32;36.40;63.10
5494;DHT22;2769;49.864;8.656;2022-08-25T09:47:23;36.10;61.70
5494;DHT22;2769;49.864;8.656;2022-08-25T09:50:16;36.40;60.90
5494;DHT22;2769;49.864;8.656;2022-08-25T09:53:11;36.20;60.40
5494;DHT22;2769;49.864;8.656;2022-08-25T09:56:04;36.60;61.20
5494;DHT22;2769;49.864;8.656;2022-08-25T09:58:53;36.70;60.30
5494;DHT22;2769;49.864;8.656;2022-08-25T10:01:47;37.00;59.30
5494;DHT22;2769;49.864;8.656;2022-08-25T10:04:38;37.50;58.40
5494;DHT22;2769;49.864;8.656;2022-08-25T10:07:28;37.80;58.10
5494;DHT22;2769;49.864;8.656;2022-08-25T10:10:21;38.10;57.20
5494;DHT22;2769;49.864;8.656;2022-08-25T10:13:13;38.30;56.70
5494;DHT22;2769;49.864;8.656;2022-08-25T10:16:11;38.40;56.40
5494;DHT22;2769;49.864;8.656;2022-08-25T10:19:11;38.10;55.40
5494;DHT22;2769;49.864;8.656;2022-08-25T10:22:05;36.70;56.70
5494;DHT22;2769;49.864;8.656;2022-08-25T10:24:52;36.70;57.80
5494;DHT22;2769;49.864;8.656;2022-08-25T10:27:46;37.30;56.80
5494;DHT22;2769;49.864;8.656;2022-08-25T10:30:50;37.00;56.50
5494;DHT22;2769;49.864;8.656;2022-08-25T10:33:48;37.20;56.70
5494;DHT22;2769;49.864;8.656;2022-08-25T10:36:46;37.60;56.20
5494;DHT22;2769;49.864;8.656;2022-08-25T10:39:39;37.80;55.40
5494;DHT22;2769;49.864;8.656;2022-08-25T10:42:33;38.30;54.70
5494;DHT22;2769;49.864;8.656;2022-08-25T10:45:24;38.40;53.80
5494;DHT22;2769;49.864;8.656;2022-08-25T10:48:54;38.50;52.80
5494;DHT22;2769;49.864;8.656;2022-08-25T10:51:53;39.00;52.30
5494;DHT22;2769;49.864;8.656;2022-08-25T10:54:47;39.40;50.60
5494;DHT22;2769;49.864;8.656;2022-08-25T10:57:38;39.40;50.90
5494;DHT22;2769;49.864;8.656;2022-08-25T11:00:33;39.40;50.90
5494;DHT22;2769;49.864;8.656;2022-08-25T11:03:32;39.80;49.80
5494;DHT22;2769;49.864;8.656;2022-08-25T11:06:25;39.90;50.00
5494;DHT22;2769;49.864;8.656;2022-08-25T11:09:19;39.80;49.60
5494;DHT22;2769;49.864;8.656;2022-08-25T11:12:12;39.80;50.10
5494;DHT22;2769;49.864;8.656;2022-08-25T11:15:03;39.80;50.00
5494;DHT22;2769;49.864;8.656;2022-08-25T11:17:54;40.10;49.10
5494;DHT22;2769;49.864;8.656;2022-08-25T11:20:45;40.00;50.00
5494;DHT22;2769;49.864;8.656;2022-08-25T11:23:37;39.90;49.10
5494;DHT22;2769;49.864;8.656;2022-08-25T11:26:27;40.20;48.30
5494;DHT22;2769;49.864;8.656;2022-08-25T11:29:25;40.30;47.70
5494;DHT22;2769;49.864;8.656;2022-08-25T11:32:17;39.60;49.90
5494;DHT22;2769;49.864;8.656;2022-08-25T11:35:09;39.90;48.40
5494;DHT22;2769;49.864;8.656;2022-08-25T11:38:07;39.80;48.80
5494;DHT22;2769;49.864;8.656;2022-08-25T11:41:06;39.90;48.60
5494;DHT22;2769;49.864;8.656;2022-08-25T11:44:08;40.20;48.80
5494;DHT22;2769;49.864;8.656;2022-08-25T11:47:17;40.60;47.40
5494;DHT22;2769;49.864;8.656;2022-08-25T11:50:23;40.80;46.30
5494;DHT22;2769;49.864;8.656;2022-08-25T11:53:19;41.10;46.30
5494;DHT22;2769;49.864;8.656;2022-08-25T11:56:28;41.90;44.80
5494;DHT22;2769;49.864;8.656;2022-08-25T11:59:59;42.80;44.40
5494;DHT22;2769;49.864;8.656;2022-08-25T12:02:48;43.60;43.30
5494;DHT22;2769;49.864;8.656;2022-08-25T12:05:51;44.10;42.20
5494;DHT22;2769;49.864;8.656;2022-08-25T12:08:49;43.70;41.70
5494;DHT22;2769;49.864;8.656;2022-08-25T12:11:49;43.70;41.60
5494;DHT22;2769;49.864;8.656;2022-08-25T12:14:54;41.40;44.00
5494;DHT22;2769;49.864;8.656;2022-08-25T12:17:41;41.50;43.70
5494;DHT22;2769;49.864;8.656;2022-08-25T12:24:13;39.20;45.60
5494;DHT22;2769;49.864;8.656;2022-08-25T12:27:02;37.90;47.40
5494;DHT22;2769;49.864;8.656;2022-08-25T12:29:54;37.90;48.50
5494;DHT22;2769;49.864;8.656;2022-08-25T12:32:53;39.40;47.90
5494;DHT22;2769;49.864;8.656;2022-08-25T12:35:54;40.40;45.50
5494;DHT22;2769;49.864;8.656;2022-08-25T12:38:43;40.10;45.50
5494;DHT22;2769;49.864;8.656;2022-08-25T12:41:52;39.30;46.40
5494;DHT22;2769;49.864;8.656;2022-08-25T12:44:42;39.00;47.00
5494;DHT22;2769;49.864;8.656;2022-08-25T12:47:32;38.60;47.60
5494;DHT22;2769;49.864;8.656;2022-08-25T12:50:40;40.00;46.50
5494;DHT22;2769;49.864;8.656;2022-08-25T12:53:33;41.90;43.60
5494;DHT22;2769;49.864;8.656;2022-08-25T12:56:25;42.00;43.30
5494;DHT22;2769;49.864;8.656;2022-08-25T12:59:17;42.30;41.90
5494;DHT22;2769;49.864;8.656;2022-08-25T13:02:26;41.60;42.50
5494;DHT22;2769;49.864;8.656;2022-08-25T13:05:48;41.10;43.60
5494;DHT22;2769;49.864;8.656;2022-08-25T13:12:06;44.60;40.20
5494;DHT22;2769;49.864;8.656;2022-08-25T13:14:57;45.60;39.00
5494;DHT22;2769;49.864;8.656;2022-08-25T13:17:44;45.50;38.30
5494;DHT22;2769;49.864;8.656;2022-08-25T13:20:32;45.70;37.70
5494;DHT22;2769;49.864;8.656;2022-08-25T13:23:27;45.90;37.60
5494;DHT22;2769;49.864;8.656;2022-08-25T13:26:23;46.90;36.40
5494;DHT22;2769;49.864;8.656;2022-08-25T13:29:14;47.40;35.10
5494;DHT22;2769;49.864;8.656;2022-08-25T13:32:06;48.00;34.30
5494;DHT22;2769;49.864;8.656;2022-08-25T13:35:08;46.50;35.30
5494;DHT22;2769;49.864;8.656;2022-08-25T13:38:12;47.50;35.50
5494;DHT22;2769;49.864;8.656;2022-08-25T13:41:02;48.30;34.20
5494;DHT22;2769;49.864;8.656;2022-08-25T13:43:54;48.90;33.60
5494;DHT22;2769;49.864;8.656;2022-08-25T13:46:45;49.40;32.70
5494;DHT22;2769;49.864;8.656;2022-08-25T13:49:35;49.60;32.60
5494;DHT22;2769;49.864;8.656;2022-08-25T13:52:26;50.30;32.00
5494;DHT22;2769;49.864;8.656;2022-08-25T13:55:19;50.20;31.40
5494;DHT22;2769;49.864;8.656;2022-08-25T13:58:14;49.80;31.60
5494;DHT22;2769;49.864;8.656;2022-08-25T14:01:11;49.00;31.90
5494;DHT22;2769;49.864;8.656;2022-08-25T14:04:22;48.30;32.60
5494;DHT22;2769;49.864;8.656;2022-08-25T14:07:25;48.50;32.40
5494;DHT22;2769;49.864;8.656;2022-08-25T14:10:32;48.30;32.40
5494;DHT22;2769;49.864;8.656;2022-08-25T14:13:29;46.60;33.90
5494;DHT22;2769;49.864;8.656;2022-08-25T14:16:21;45.90;35.10
5494;DHT22;2769;49.864;8.656;2022-08-25T14:19:14;46.70;32.90
5494;DHT22;2769;49.864;8.656;2022-08-25T14:22:04;46.80;32.90
5494;DHT22;2769;49.864;8.656;2022-08-25T14:24:53;47.00;33.70
5494;DHT22;2769;49.864;8.656;2022-08-25T14:27:41;47.10;33.50
5494;DHT22;2769;49.864;8.656;2022-08-25T14:30:50;46.80;34.10
5494;DHT22;2769;49.864;8.656;2022-08-25T14:33:40;47.90;32.70
5494;DHT22;2769;49.864;8.656;2022-08-25T14:36:34;48.60;31.50
5494;DHT22;2769;49.864;8.656;2022-08-25T14:39:23;48.80;30.80
5494;DHT22;2769;49.864;8.656;2022-08-25T14:42:11;48.60;30.50
5494;DHT22;2769;49.864;8.656;2022-08-25T14:44:58;48.50;31.30
5494;DHT22;2769;49.864;8.656;2022-08-25T14:47:44;48.20;30.80
5494;DHT22;2769;49.864;8.656;2022-08-25T14:50:34;48.40;30.80
5494;DHT22;2769;49.864;8.656;2022-08-25T14:53:26;48.10;31.30
5494;DHT22;2769;49.864;8.656;2022-08-25T14:56:12;47.80;31.50
5494;DHT22;2769;49.864;8.656;2022-08-25T14:59:01;46.50;32.20
5494;DHT22;2769;49.864;8.656;2022-08-25T15:01:48;44.40;34.30
5494;DHT22;2769;49.864;8.656;2022-08-25T15:04:36;42.80;36.20
5494;DHT22;2769;49.864;8.656;2022-08-25T15:07:27;40.80;38.10
5494;DHT22;2769;49.864;8.656;2022-08-25T15:10:33;39.30;40.30
5494;DHT22;2769;49.864;8.656;2022-08-25T15:13:20;38.20;41.60
5494;DHT22;2769;49.864;8.656;2022-08-25T15:16:12;37.80;42.90
5494;DHT22;2769;49.864;8.656;2022-08-25T15:19:06;37.30;43.20
5494;DHT22;2769;49.864;8.656;2022-08-25T15:21:53;37.00;44.00
5494;DHT22;2769;49.864;8.656;2022-08-25T15:24:43;36.60;44.80
5494;DHT22;2769;49.864;8.656;2022-08-25T15:27:31;36.10;46.00
5494;DHT22;2769;49.864;8.656;2022-08-25T15:30:18;36.20;46.00
5494;DHT22;2769;49.864;8.656;2022-08-25T15:33:17;36.10;46.00
5494;DHT22;2769;49.864;8.656;2022-08-25T15:36:05;36.00;46.90
5494;DHT22;2769;49.864;8.656;2022-08-25T15:38:59;35.70;47.10
5494;DHT22;2769;49.864;8.656;2022-08-25T15:41:48;35.50;49.60
5494;DHT22;2769;49.864;8.656;2022-08-25T15:44:36;35.40;49.30
5494;DHT22;2769;49.864;8.656;2022-08-25T15:47:23;35.20;47.80
5494;DHT22;2769;49.864;8.656;2022-08-25T15:50:13;35.20;48.80
5494;DHT22;2769;49.864;8.656;2022-08-25T15:53:00;35.20;49.30
5494;DHT22;2769;49.864;8.656;2022-08-25T15:55:48;35.10;48.60
5494;DHT22;2769;49.864;8.656;2022-08-25T15:58:38;34.90;49.70
5494;DHT22;2769;49.864;8.656;2022-08-25T16:01:34;35.10;49.20
5494;DHT22;2769;49.864;8.656;2022-08-25T16:04:22;35.10;49.30
5494;DHT22;2769;49.864;8.656;2022-08-25T16:07:10;34.90;49.80
5494;DHT22;2769;49.864;8.656;2022-08-25T16:09:58;34.80;49.50
5494;DHT22;2769;49.864;8.656;2022-08-25T16:12:45;34.40;49.70
5494;DHT22;2769;49.864;8.656;2022-08-25T16:15:32;34.50;50.60
5494;DHT22;2769;49.864;8.656;2022-08-25T16:18:20;34.40;49.60
5494;DHT22;2769;49.864;8.656;2022-08-25T16:21:08;34.30;50.60
5494;DHT22;2769;49.864;8.656;2022-08-25T16:24:01;34.20;51.00
5494;DHT22;2769;49.864;8.656;2022-08-25T16:26:52;34.40;50.50
5494;DHT22;2769;49.864;8.656;2022-08-25T16:29:42;34.30;50.30
5494;DHT22;2769;49.864;8.656;2022-08-25T16:32:30;34.20;50.20
5494;DHT22;2769;49.864;8.656;2022-08-25T16:35:16;34.40;50.10
5494;DHT22;2769;49.864;8.656;2022-08-25T16:38:03;34.40;50.40
5494;DHT22;2769;49.864;8.656;2022-08-25T16:40:52;34.30;49.70
5494;DHT22;2769;49.864;8.656;2022-08-25T16:43:40;34.30;50.00
5494;DHT22;2769;49.864;8.656;2022-08-25T16:46:27;34.20;50.30
5494;DHT22;2769;49.864;8.656;2022-08-25T16:49:14;34.10;50.70
5494;DHT22;2769;49.864;8.656;2022-08-25T16:52:01;34.20;50.30
5494;DHT22;2769;49.864;8.656;2022-08-25T16:55:13;34.00;51.40
5494;DHT22;2769;49.864;8.656;2022-08-25T16:58:01;33.90;50.70
5494;DHT22;2769;49.864;8.656;2022-08-25T17:00:49;33.80;51.20
5494;DHT22;2769;49.864;8.656;2022-08-25T17:03:39;33.80;52.20
5494;DHT22;2769;49.864;8.656;2022-08-25T17:06:31;33.80;51.50
5494;DHT22;2769;49.864;8.656;2022-08-25T17:09:18;33.70;51.30
5494;DHT22;2769;49.864;8.656;2022-08-25T17:12:08;33.70;51.40
5494;DHT22;2769;49.864;8.656;2022-08-25T17:14:57;33.60;51.50
5494;DHT22;2769;49.864;8.656;2022-08-25T17:17:44;33.60;51.70
5494;DHT22;2769;49.864;8.656;2022-08-25T17:20:30;33.50;52.40
5494;DHT22;2769;49.864;8.656;2022-08-25T17:23:19;33.40;51.80
5494;DHT22;2769;49.864;8.656;2022-08-25T17:26:06;33.20;53.00
5494;DHT22;2769;49.864;8.656;2022-08-25T17:28:59;33.20;52.80
5494;DHT22;2769;49.864;8.656;2022-08-25T17:31:47;33.10;52.80
5494;DHT22;2769;49.864;8.656;2022-08-25T17:34:35;33.00;53.50
5494;DHT22;2769;49.864;8.656;2022-08-25T17:37:23;32.80;53.70
5494;DHT22;2769;49.864;8.656;2022-08-25T17:40:11;32.70;53.60
5494;DHT22;2769;49.864;8.656;2022-08-25T17:42:58;32.70;53.80
5494;DHT22;2769;49.864;8.656;2022-08-25T17:45:45;32.60;54.50
5494;DHT22;2769;49.864;8.656;2022-08-25T17:48:35;32.60;54.80
5494;DHT22;2769;49.864;8.656;2022-08-25T17:51:28;32.50;55.00
5494;DHT22;2769;49.864;8.656;2022-08-25T17:54:16;32.00;55.20
5494;DHT22;2769;49.864;8.656;2022-08-25T17:57:03;32.30;55.00
5494;DHT22;2769;49.864;8.656;2022-08-25T17:59:52;32.00;55.60
5494;DHT22;2769;49.864;8.656;2022-08-25T18:02:39;32.00;55.60
5494;DHT22;2769;49.864;8.656;2022-08-25T18:05:32;31.90;56.30
5494;DHT22;2769;49.864;8.656;2022-08-25T18:08:18;31.90;56.80
5494;DHT22;2769;49.864;8.656;2022-08-25T18:11:17;31.80;56.70
5494;DHT22;2769;49.864;8.656;2022-08-25T18:14:03;31.80;57.00
5494;DHT22;2769;49.864;8.656;2022-08-25T18:16:50;31.70;57.30
5494;DHT22;2769;49.864;8.656;2022-08-25T18:19:38;31.60;57.70
5494;DHT22;2769;49.864;8.656;2022-08-25T18:22:26;31.60;57.80
5494;DHT22;2769;49.864;8.656;2022-08-25T18:25:13;31.40;58.20
5494;DHT22;2769;49.864;8.656;2022-08-25T18:28:01;31.40;58.50
5494;DHT22;2769;49.864;8.656;2022-08-25T18:30:48;31.30;58.60
5494;DHT22;2769;49.864;8.656;2022-08-25T18:33:36;31.30;58.60
5494;DHT22;2769;49.864;8.656;2022-08-25T18:36:26;31.20;58.60
5494;DHT22;2769;49.864;8.656;2022-08-25T18:39:14;31.10;59.50
5494;DHT22;2769;49.864;8.656;2022-08-25T18:42:19;31.10;59.10
5494;DHT22;2769;49.864;8.656;2022-08-25T18:45:07;31.00;59.40